Time,TemperatureF,DewpointF,PressureIn,WindDirection,WindDirectionDegrees,WindSpeedMPH,WindSpeedGustMPH,Humidity,HourlyPrecipIn,Conditions,Clouds,dailyrainin,SoftwareType,DateUTC
2013-08-14 00:00:00,83.8,83.8,29.92,ESE,119,2.0,3.0,100,0.00,,,0.00,Wunderground v.1.15,2013-08-14 04:00:00,
2013-08-14 00:05:00,83.8,83.8,29.92,ENE,64,2.0,3.0,100,0.00,,,0.00,Wunderground v.1.15,2013-08-14 04:05:00,
2013-08-14 00:10:00,83.8,83.8,29.92,ESE,103,2.0,2.0,100,0.00,,,0.00,Wunderground v.1.15,2013-08-14 04:10:00,
2013-08-14 00:15:00,83.6,83.6,29.92,ESE,112,1.0,3.0,100,0.00,,,0.00,Wunderground v.1.15,2013-08-14 04:15:00,
2013-08-14 00:20:00,83.6,83.6,29.92,ESE,107,1.0,1.0,100,0.00,,,0.00,Wunderground v.1.15,2013-08-14 04:20:00,
2013-08-14 00:25:00,83.6,83.6,29.92,East,99,2.0,8.0,100,0.00,,,0.00,Wunderground v.1.15,2013-08-14 04:25:00,
2013-08-14 00:35:00,83.6,83.6,29.91,East,95,3.0,6.0,100,0.00,,,0.00,Wunderground v.1.15,2013-08-14 04:35:00,
2013-08-14 00:40:00,83.6,83.6,29.91,ESE,104,2.0,2.0,100,0.00,,,0.00,Wunderground v.1.15,2013-08-14 04:40:00,
2013-08-14 00:50:00,83.8,83.8,29.91,East,92,1.0,1.0,100,0.00,,,0.00,Wunderground v.1.15,2013-08-14 04:50:00,
2013-08-14 00:55:00,83.8,83.8,29.91,East,93,3.0,3.0,100,0.00,,,0.00,Wunderground v.1.15,2013-08-14 04:55:00,
2013-08-14 01:05:00,83.8,83.8,29.91,ESE,113,3.0,3.0,100,0.00,,,0.00,Wunderground v.1.15,2013-08-14 05:05:00,
2013-08-14 01:10:00,83.6,83.6,29.91,ESE,116,5.0,7.0,100,0.00,,,0.00,Wunderground v.1.15,2013-08-14 05:10:00,
2013-08-14 01:20:00,83.8,83.8,29.90,SE,126,4.0,4.0,100,0.00,,,0.00,Wunderground v.1.15,2013-08-14 05:20:00,
2013-08-14 01:30:00,83.8,83.8,29.90,ENE,64,3.0,3.0,100,0.00,,,0.00,Wunderground v.1.15,2013-08-14 05:30:00,
2013-08-14 01:40:00,83.6,83.6,29.90,ESE,110,2.0,2.0,100,0.00,,,0.00,Wunderground v.1.15,2013-08-14 05:40:00,
2013-08-14 02:00:00,83.6,83.6,29.89,ESE,116,2.0,2.0,100,0.00,,,0.00,Wunderground v.1.15,2013-08-14 06:00:00,
2013-08-14 02:05:00,83.4,83.4,29.89,ESE,117,2.0,2.0,100,0.00,,,0.00,Wunderground v.1.15,2013-08-14 06:05:00,
2013-08-14 02:15:00,83.4,83.4,29.89,ESE,116,2.0,5.0,100,0.00,,,0.00,Wunderground v.1.15,2013-08-14 06:15:00,
2013-08-14 02:20:00,83.4,83.4,29.89,ESE,103,3.0,5.0,100,0.00,,,0.00,Wunderground v.1.15,2013-08-14 06:20:00,
2013-08-14 02:30:00,83.4,83.4,29.89,East,82,4.0,4.0,100,0.00,,,0.00,Wunderground v.1.15,2013-08-14 06:30:00,
2013-08-14 02:40:00,83.6,83.6,29.89,ESE,103,4.0,4.0,100,0.00,,,0.00,Wunderground v.1.15,2013-08-14 06:40:00,
2013-08-14 02:50:00,83.6,83.6,29.89,East,97,6.0,6.0,100,0.00,,,0.00,Wunderground v.1.15,2013-08-14 06:50:00,
2013-08-14 02:55:00,83.6,83.6,29.89,East,97,5.0,6.0,100,0.00,,,0.00,Wunderground v.1.15,2013-08-14 06:55:00,
2013-08-14 03:05:00,83.2,83.2,29.89,ESE,112,3.0,6.0,100,0.00,,,0.00,Wunderground v.1.15,2013-08-14 07:05:00,
2013-08-14 03:15:00,83.4,83.4,29.88,ESE,120,5.0,7.0,100,0.00,,,0.00,Wunderground v.1.15,2013-08-14 07:15:00,
2013-08-14 03:20:00,83.2,83.2,29.88,East,86,4.0,4.0,100,0.00,,,0.00,Wunderground v.1.15,2013-08-14 07:20:00,
2013-08-14 03:30:00,83.2,83.2,29.88,ENE,73,4.0,8.0,100,0.00,,,0.00,Wunderground v.1.15,2013-08-14 07:30:00,
2013-08-14 03:35:00,83.4,83.4,29.88,East,95,4.0,8.0,100,0.00,,,0.00,Wunderground v.1.15,2013-08-14 07:35:00,
2013-08-14 03:45:00,83.2,83.2,29.88,East,85,5.0,5.0,100,0.00,,,0.00,Wunderground v.1.15,2013-08-14 07:45:00,
2013-08-14 03:55:00,83.2,83.2,29.88,ESE,103,5.0,7.0,100,0.00,,,0.00,Wunderground v.1.15,2013-08-14 07:55:00,
2013-08-14 04:05:00,83.0,83.0,29.87,ESE,113,4.0,5.0,100,0.00,,,0.00,Wunderground v.1.15,2013-08-14 08:05:00,
2013-08-14 04:15:00,83.0,83.0,29.87,ESE,121,5.0,6.0,100,0.00,,,0.00,Wunderground v.1.15,2013-08-14 08:15:00,
2013-08-14 04:25:00,83.0,83.0,29.87,ESE,121,5.0,5.0,100,0.00,,,0.00,Wunderground v.1.15,2013-08-14 08:25:00,
2013-08-14 04:30:00,83.0,83.0,29.86,ESE,109,4.0,4.0,100,0.00,,,0.00,Wunderground v.1.15,2013-08-14 08:30:00,
2013-08-14 04:40:00,83.0,83.0,29.86,ESE,104,4.0,8.0,100,0.00,,,0.00,Wunderground v.1.15,2013-08-14 08:40:00,
2013-08-14 04:50:00,83.2,83.2,29.86,East,89,5.0,5.0,100,0.00,,,0.00,Wunderground v.1.15,2013-08-14 08:50:00,
2013-08-14 05:00:00,83.0,83.0,29.86,East,89,4.0,4.0,100,0.00,,,0.00,Wunderground v.1.15,2013-08-14 09:00:00,
2013-08-14 05:05:00,83.2,83.2,29.86,ESE,120,4.0,4.0,100,0.00,,,0.00,Wunderground v.1.15,2013-08-14 09:05:00,
2013-08-14 05:15:00,83.0,83.0,29.86,East,90,6.0,8.0,100,0.00,,,0.00,Wunderground v.1.15,2013-08-14 09:15:00,
2013-08-14 05:25:00,83.0,83.0,29.86,ESE,114,5.0,5.0,100,0.00,,,0.00,Wunderground v.1.15,2013-08-14 09:25:00,
2013-08-14 05:30:00,83.0,83.0,29.86,East,100,4.0,6.0,100,0.00,,,0.00,Wunderground v.1.15,2013-08-14 09:30:00,
2013-08-14 05:40:00,83.0,83.0,29.86,ESE,114,4.0,4.0,100,0.00,,,0.00,Wunderground v.1.15,2013-08-14 09:40:00,
2013-08-14 05:45:00,83.2,83.2,29.86,ESE,110,5.0,5.0,100,0.00,,,0.00,Wunderground v.1.15,2013-08-14 09:45:00,
2013-08-14 05:55:00,83.2,83.2,29.86,East,92,4.0,6.0,100,0.00,,,0.00,Wunderground v.1.15,2013-08-14 09:55:00,
2013-08-14 06:00:00,83.0,83.0,29.86,East,88,3.0,3.0,100,0.00,,,0.00,Wunderground v.1.15,2013-08-14 10:00:00,
2013-08-14 06:10:00,83.0,83.0,29.86,ESE,102,4.0,4.0,100,0.00,,,0.00,Wunderground v.1.15,2013-08-14 10:10:00,
2013-08-14 06:20:00,83.0,83.0,29.86,ESE,112,2.0,5.0,100,0.00,,,0.00,Wunderground v.1.15,2013-08-14 10:20:00,
2013-08-14 06:25:00,83.0,83.0,29.86,East,85,2.0,5.0,100,0.00,,,0.00,Wunderground v.1.15,2013-08-14 10:25:00,
2013-08-14 06:35:00,83.0,83.0,29.86,East,92,1.0,1.0,100,0.00,,,0.00,Wunderground v.1.15,2013-08-14 10:35:00,
2013-08-14 06:40:00,83.0,83.0,29.86,ESE,121,1.0,5.0,100,0.00,,,0.00,Wunderground v.1.15,2013-08-14 10:40:00,
2013-08-14 06:50:00,83.0,83.0,29.87,ESE,116,4.0,7.0,100,0.00,,,0.00,Wunderground v.1.15,2013-08-14 10:50:00,
2013-08-14 06:55:00,83.0,83.0,29.87,ESE,116,4.0,10.0,100,0.00,,,0.00,Wunderground v.1.15,2013-08-14 10:55:00,
2013-08-14 07:05:00,82.8,82.8,29.87,ESE,112,4.0,4.0,100,0.00,,,0.00,Wunderground v.1.15,2013-08-14 11:05:00,
2013-08-14 07:10:00,82.8,82.8,29.87,ESE,110,4.0,4.0,100,0.00,,,0.00,Wunderground v.1.15,2013-08-14 11:10:00,
2013-08-14 07:20:00,83.4,83.4,29.87,ESE,110,4.0,4.0,100,0.00,,,0.00,Wunderground v.1.15,2013-08-14 11:20:00,
2013-08-14 07:30:00,83.4,83.4,29.87,East,93,3.0,3.0,100,0.00,,,0.00,Wunderground v.1.15,2013-08-14 11:30:00,
2013-08-14 07:35:00,83.6,83.6,29.87,East,92,4.0,4.0,100,0.00,,,0.00,Wunderground v.1.15,2013-08-14 11:35:00,
2013-08-14 07:45:00,83.8,83.8,29.87,ESE,113,4.0,6.0,100,0.00,,,0.00,Wunderground v.1.15,2013-08-14 11:45:00,
2013-08-14 07:55:00,84.0,84.0,29.87,East,83,4.0,11.0,100,0.00,,,0.00,Wunderground v.1.15,2013-08-14 11:55:00,
2013-08-14 08:05:00,84.0,84.0,29.87,ESE,106,3.0,3.0,100,0.00,,,0.00,Wunderground v.1.15,2013-08-14 12:05:00,
2013-08-14 08:15:00,84.1,84.1,29.88,ESE,110,2.0,3.0,100,0.00,,,0.00,Wunderground v.1.15,2013-08-14 12:15:00,
2013-08-14 08:25:00,84.3,84.3,29.88,ESE,103,4.0,5.0,100,0.00,,,0.00,Wunderground v.1.15,2013-08-14 12:25:00,
2013-08-14 08:30:00,84.3,84.3,29.88,SE,133,4.0,4.0,100,0.00,,,0.00,Wunderground v.1.15,2013-08-14 12:30:00,
2013-08-14 08:40:00,84.5,84.5,29.88,ESE,107,3.0,5.0,100,0.00,,,0.00,Wunderground v.1.15,2013-08-14 12:40:00,
2013-08-14 08:45:00,84.5,84.5,29.88,ESE,113,4.0,7.0,100,0.00,,,0.00,Wunderground v.1.15,2013-08-14 12:45:00,
2013-08-14 08:55:00,84.3,84.3,29.88,ESE,106,4.0,5.0,100,0.00,,,0.00,Wunderground v.1.15,2013-08-14 12:55:00,
2013-08-14 09:00:00,84.5,84.5,29.87,ESE,120,4.0,4.0,100,0.00,,,0.00,Wunderground v.1.15,2013-08-14 13:00:00,
2013-08-14 09:10:00,85.1,85.1,29.87,ESE,103,2.0,6.0,100,0.00,,,0.00,Wunderground v.1.15,2013-08-14 13:10:00,
2013-08-14 09:15:00,85.1,85.1,29.88,ESE,102,3.0,6.0,100,0.00,,,0.00,Wunderground v.1.15,2013-08-14 13:15:00,
2013-08-14 09:25:00,85.3,85.3,29.88,East,88,3.0,5.0,100,0.00,,,0.00,Wunderground v.1.15,2013-08-14 13:25:00,
2013-08-14 09:35:00,85.3,85.3,29.88,ESE,107,4.0,7.0,100,0.00,,,0.00,Wunderground v.1.15,2013-08-14 13:35:00,
2013-08-14 09:40:00,85.5,85.5,29.88,ESE,117,3.0,6.0,100,0.00,,,0.00,Wunderground v.1.15,2013-08-14 13:40:00,
2013-08-14 09:50:00,85.7,85.7,29.88,ESE,106,2.0,5.0,100,0.00,,,0.00,Wunderground v.1.15,2013-08-14 13:50:00,
2013-08-14 09:55:00,85.5,85.5,29.88,ESE,114,3.0,5.0,100,0.00,,,0.00,Wunderground v.1.15,2013-08-14 13:55:00,
2013-08-14 10:05:00,85.9,85.9,29.89,ESE,117,3.0,4.0,100,0.00,,,0.00,Wunderground v.1.15,2013-08-14 14:05:00,
2013-08-14 10:10:00,86.1,86.1,29.89,East,95,2.0,2.0,100,0.00,,,0.00,Wunderground v.1.15,2013-08-14 14:10:00,
2013-08-14 10:20:00,86.1,86.1,29.89,East,83,4.0,4.0,100,0.00,,,0.00,Wunderground v.1.15,2013-08-14 14:20:00,
2013-08-14 10:25:00,86.7,86.7,29.89,East,97,3.0,4.0,100,0.00,,,0.00,Wunderground v.1.15,2013-08-14 14:25:00,
2013-08-14 10:35:00,86.3,86.3,29.89,ESE,117,3.0,7.0,100,0.00,,,0.00,Wunderground v.1.15,2013-08-14 14:35:00,
2013-08-14 10:40:00,86.5,86.5,29.89,ESE,110,3.0,3.0,100,0.00,,,0.00,Wunderground v.1.15,2013-08-14 14:40:00,
2013-08-14 10:50:00,86.5,86.5,29.89,ESE,102,3.0,3.0,100,0.00,,,0.00,Wunderground v.1.15,2013-08-14 14:50:00,
2013-08-14 10:55:00,86.7,86.7,29.89,ESE,110,3.0,5.0,100,0.00,,,0.00,Wunderground v.1.15,2013-08-14 14:55:00,
2013-08-14 11:05:00,86.7,86.7,29.90,East,80,4.0,4.0,100,0.00,,,0.00,Wunderground v.1.15,2013-08-14 15:05:00,
2013-08-14 11:10:00,86.7,86.7,29.90,ESE,114,3.0,11.0,100,0.00,,,0.00,Wunderground v.1.15,2013-08-14 15:10:00,
2013-08-14 11:20:00,85.7,85.7,29.90,ESE,107,5.0,5.0,100,0.00,,,0.00,Wunderground v.1.15,2013-08-14 15:20:00,
2013-08-14 11:30:00,85.9,85.9,29.90,East,82,3.0,3.0,100,0.00,,,0.00,Wunderground v.1.15,2013-08-14 15:30:00,
2013-08-14 11:40:00,86.5,86.5,29.90,East,88,3.0,3.0,100,0.00,,,0.00,Wunderground v.1.15,2013-08-14 15:40:00,
2013-08-14 11:45:00,86.5,86.5,29.90,SE,128,3.0,6.0,100,0.00,,,0.00,Wunderground v.1.15,2013-08-14 15:45:00,
2013-08-14 11:55:00,85.9,85.9,29.90,East,89,2.0,5.0,100,0.00,,,0.00,Wunderground v.1.15,2013-08-14 15:55:00,
2013-08-14 12:00:00,86.5,86.5,29.90,SE,128,2.0,2.0,100,0.00,,,0.00,Wunderground v.1.15,2013-08-14 16:00:00,
2013-08-14 12:10:00,86.7,86.7,29.90,East,95,3.0,3.0,100,0.00,,,0.00,Wunderground v.1.15,2013-08-14 16:10:00,
2013-08-14 12:15:00,86.5,86.5,29.90,ESE,112,3.0,3.0,100,0.00,,,0.00,Wunderground v.1.15,2013-08-14 16:15:00,
2013-08-14 12:30:00,86.3,86.3,29.90,East,97,2.0,2.0,100,0.00,,,0.00,Wunderground v.1.15,2013-08-14 16:30:00,
2013-08-14 12:40:00,85.1,85.1,29.90,SSE,160,4.0,14.0,100,0.00,,,0.00,Wunderground v.1.15,2013-08-14 16:40:00,
2013-08-14 12:50:00,83.6,83.6,29.90,ESE,120,6.0,6.0,100,0.00,,,0.00,Wunderground v.1.15,2013-08-14 16:50:00,
2013-08-14 13:00:00,84.0,84.0,29.89,ESE,116,4.0,8.0,100,0.00,,,0.00,Wunderground v.1.15,2013-08-14 17:00:00,
2013-08-14 13:10:00,84.3,84.3,29.89,ESE,120,4.0,4.0,100,0.00,,,0.00,Wunderground v.1.15,2013-08-14 17:10:00,
2013-08-14 13:20:00,84.7,84.7,29.90,SE,127,6.0,6.0,100,0.00,,,0.00,Wunderground v.1.15,2013-08-14 17:20:00,
2013-08-14 13:30:00,85.9,85.9,29.89,ESE,109,5.0,5.0,100,0.00,,,0.00,Wunderground v.1.15,2013-08-14 17:30:00,
2013-08-14 13:40:00,86.5,86.5,29.89,ESE,109,3.0,3.0,100,0.00,,,0.00,Wunderground v.1.15,2013-08-14 17:40:00,
2013-08-14 13:45:00,86.7,86.7,29.89,East,83,3.0,3.0,100,0.00,,,0.00,Wunderground v.1.15,2013-08-14 17:45:00,
2013-08-14 13:50:00,87.0,87.0,29.89,ESE,104,3.0,7.0,100,0.00,,,0.00,Wunderground v.1.15,2013-08-14 17:50:00,
2013-08-14 14:00:00,86.3,86.3,29.89,East,83,5.0,5.0,100,0.00,,,0.00,Wunderground v.1.15,2013-08-14 18:00:00,
2013-08-14 14:15:00,86.1,86.1,29.88,ESE,112,5.0,7.0,100,0.00,,,0.00,Wunderground v.1.15,2013-08-14 18:15:00,
2013-08-14 14:25:00,86.3,86.3,29.88,East,96,4.0,10.0,100,0.00,,,0.00,Wunderground v.1.15,2013-08-14 18:25:00,
2013-08-14 14:40:00,87.0,87.0,29.88,ESE,110,4.0,4.0,100,0.00,,,0.00,Wunderground v.1.15,2013-08-14 18:40:00,
2013-08-14 14:55:00,86.7,86.7,29.87,ESE,119,5.0,7.0,100,0.00,,,0.00,Wunderground v.1.15,2013-08-14 18:55:00,
2013-08-14 15:05:00,86.1,86.1,29.87,ESE,106,6.0,10.0,100,0.00,,,0.00,Wunderground v.1.15,2013-08-14 19:05:00,
2013-08-14 15:20:00,87.2,87.2,29.87,SE,130,4.0,6.0,100,0.00,,,0.00,Wunderground v.1.15,2013-08-14 19:20:00,
2013-08-14 15:35:00,85.9,85.9,29.87,ESE,103,6.0,6.0,100,0.00,,,0.00,Wunderground v.1.15,2013-08-14 19:35:00,
2013-08-14 15:45:00,86.3,86.3,29.86,East,100,5.0,7.0,100,0.00,,,0.00,Wunderground v.1.15,2013-08-14 19:45:00,
2013-08-14 15:55:00,86.1,86.1,29.86,ESE,109,6.0,10.0,100,0.00,,,0.00,Wunderground v.1.15,2013-08-14 19:55:00,
2013-08-14 16:05:00,85.1,85.1,29.86,ESE,104,7.0,13.0,100,0.00,,,0.00,Wunderground v.1.15,2013-08-14 20:05:00,
2013-08-14 16:15:00,84.7,84.7,29.86,East,99,7.0,7.0,100,0.00,,,0.00,Wunderground v.1.15,2013-08-14 20:15:00,
2013-08-14 16:25:00,83.8,83.8,29.86,ENE,78,7.0,8.0,100,0.00,,,0.00,Wunderground v.1.15,2013-08-14 20:25:00,
2013-08-14 16:40:00,84.3,84.3,29.86,East,89,7.0,7.0,100,0.00,,,0.00,Wunderground v.1.15,2013-08-14 20:40:00,
2013-08-14 16:45:00,84.3,84.3,29.85,ESE,106,6.0,9.0,100,0.00,,,0.00,Wunderground v.1.15,2013-08-14 20:45:00,
2013-08-14 16:55:00,84.0,84.0,29.85,East,96,5.0,5.0,100,0.00,,,0.00,Wunderground v.1.15,2013-08-14 20:55:00,
2013-08-14 17:05:00,84.1,84.1,29.86,ESE,121,5.0,9.0,100,0.00,,,0.00,Wunderground v.1.15,2013-08-14 21:05:00,
2013-08-14 17:15:00,84.7,84.7,29.85,East,89,5.0,6.0,100,0.00,,,0.00,Wunderground v.1.15,2013-08-14 21:15:00,
2013-08-14 17:25:00,84.7,84.7,29.85,ESE,109,5.0,8.0,100,0.00,,,0.00,Wunderground v.1.15,2013-08-14 21:25:00,
2013-08-14 17:35:00,85.3,85.3,29.84,ESE,106,4.0,8.0,100,0.00,,,0.00,Wunderground v.1.15,2013-08-14 21:35:00,
2013-08-14 17:40:00,84.9,84.9,29.84,ENE,73,5.0,7.0,100,0.00,,,0.00,Wunderground v.1.15,2013-08-14 21:40:00,
2013-08-14 17:50:00,84.9,84.9,29.84,ESE,114,6.0,6.0,100,0.00,,,0.00,Wunderground v.1.15,2013-08-14 21:50:00,
2013-08-14 18:00:00,84.9,84.9,29.84,East,90,6.0,6.0,100,0.00,,,0.00,Wunderground v.1.15,2013-08-14 22:00:00,
2013-08-14 18:10:00,84.5,84.5,29.84,SE,127,8.0,8.0,100,0.00,,,0.00,Wunderground v.1.15,2013-08-14 22:10:00,
2013-08-14 18:15:00,84.3,84.3,29.83,ESE,107,7.0,8.0,100,0.00,,,0.00,Wunderground v.1.15,2013-08-14 22:15:00,
2013-08-14 18:25:00,84.1,84.1,29.83,ESE,103,7.0,8.0,100,0.00,,,0.00,Wunderground v.1.15,2013-08-14 22:25:00,
2013-08-14 18:30:00,84.1,84.1,29.84,SE,127,7.0,11.0,100,0.00,,,0.00,Wunderground v.1.15,2013-08-14 22:30:00,
2013-08-14 18:40:00,84.0,84.0,29.84,ESE,121,7.0,8.0,100,0.00,,,0.00,Wunderground v.1.15,2013-08-14 22:40:00,
2013-08-14 18:50:00,83.8,83.8,29.84,ESE,114,7.0,8.0,100,0.00,,,0.00,Wunderground v.1.15,2013-08-14 22:50:00,
2013-08-14 19:00:00,84.1,84.1,29.85,ESE,117,7.0,10.0,100,0.00,,,0.00,Wunderground v.1.15,2013-08-14 23:00:00,
2013-08-14 19:10:00,84.0,84.0,29.85,ESE,106,6.0,11.0,100,0.00,,,0.00,Wunderground v.1.15,2013-08-14 23:10:00,
2013-08-14 19:15:00,84.0,84.0,29.85,East,93,6.0,11.0,100,0.00,,,0.00,Wunderground v.1.15,2013-08-14 23:15:00,
2013-08-14 19:25:00,83.8,83.8,29.85,SE,127,6.0,10.0,100,0.00,,,0.00,Wunderground v.1.15,2013-08-14 23:25:00,
2013-08-14 19:35:00,83.8,83.8,29.85,ESE,109,5.0,6.0,100,0.00,,,0.00,Wunderground v.1.15,2013-08-14 23:35:00,
2013-08-14 19:45:00,83.8,83.8,29.86,ESE,107,6.0,6.0,100,0.00,,,0.00,Wunderground v.1.15,2013-08-14 23:45:00,
2013-08-14 19:55:00,83.6,83.6,29.86,ESE,113,5.0,6.0,100,0.00,,,0.00,Wunderground v.1.15,2013-08-14 23:55:00,
2013-08-14 20:05:00,83.6,83.6,29.86,ESE,113,6.0,7.0,100,0.00,,,0.00,Wunderground v.1.15,2013-08-15 00:05:00,
2013-08-14 20:10:00,84.0,84.0,29.86,ESE,123,6.0,6.0,100,0.00,,,0.00,Wunderground v.1.15,2013-08-15 00:10:00,
2013-08-14 20:20:00,84.0,84.0,29.86,ESE,107,5.0,6.0,100,0.00,,,0.00,Wunderground v.1.15,2013-08-15 00:20:00,
2013-08-14 20:25:00,84.0,84.0,29.86,ESE,117,4.0,7.0,100,0.00,,,0.00,Wunderground v.1.15,2013-08-15 00:25:00,
2013-08-14 20:35:00,84.0,84.0,29.87,ESE,110,4.0,10.0,100,0.00,,,0.00,Wunderground v.1.15,2013-08-15 00:35:00,
2013-08-14 20:45:00,84.0,84.0,29.88,ESE,112,5.0,5.0,100,0.00,,,0.00,Wunderground v.1.15,2013-08-15 00:45:00,
2013-08-14 20:55:00,84.0,84.0,29.88,ESE,116,6.0,6.0,100,0.00,,,0.00,Wunderground v.1.15,2013-08-15 00:55:00,
2013-08-14 21:05:00,83.8,83.8,29.89,ESE,106,5.0,8.0,100,0.00,,,0.00,Wunderground v.1.15,2013-08-15 01:05:00,
2013-08-14 21:15:00,83.8,83.8,29.89,ESE,109,6.0,6.0,100,0.00,,,0.00,Wunderground v.1.15,2013-08-15 01:15:00,
2013-08-14 21:25:00,83.6,83.6,29.89,ESE,117,5.0,8.0,100,0.00,,,0.00,Wunderground v.1.15,2013-08-15 01:25:00,
2013-08-14 21:35:00,83.8,83.8,29.89,ESE,107,4.0,8.0,100,0.00,,,0.00,Wunderground v.1.15,2013-08-15 01:35:00,
2013-08-14 21:45:00,83.8,83.8,29.90,East,99,7.0,7.0,100,0.00,,,0.00,Wunderground v.1.15,2013-08-15 01:45:00,
2013-08-14 21:55:00,83.8,83.8,29.90,ESE,123,7.0,8.0,100,0.00,,,0.00,Wunderground v.1.15,2013-08-15 01:55:00,
2013-08-14 22:05:00,83.8,83.8,29.91,ESE,116,7.0,12.0,100,0.00,,,0.00,Wunderground v.1.15,2013-08-15 02:05:00,
2013-08-14 22:15:00,84.0,84.0,29.92,SE,133,5.0,6.0,100,0.00,,,0.00,Wunderground v.1.15,2013-08-15 02:15:00,
2013-08-14 22:20:00,84.0,84.0,29.92,ESE,107,5.0,5.0,100,0.00,,,0.00,Wunderground v.1.15,2013-08-15 02:20:00,
2013-08-14 22:30:00,84.0,84.0,29.92,ESE,113,6.0,6.0,100,0.00,,,0.00,Wunderground v.1.15,2013-08-15 02:30:00,
2013-08-14 22:35:00,84.0,84.0,29.92,SE,124,6.0,6.0,100,0.00,,,0.00,Wunderground v.1.15,2013-08-15 02:35:00,
2013-08-14 22:45:00,84.0,84.0,29.92,ENE,72,6.0,6.0,100,0.00,,,0.00,Wunderground v.1.15,2013-08-15 02:45:00,
2013-08-14 22:55:00,84.0,84.0,29.92,SE,137,4.0,8.0,100,0.00,,,0.00,Wunderground v.1.15,2013-08-15 02:55:00,
2013-08-14 23:05:00,84.0,84.0,29.92,ESE,104,6.0,10.0,100,0.00,,,0.00,Wunderground v.1.15,2013-08-15 03:05:00,
2013-08-14 23:15:00,84.0,84.0,29.92,SE,144,6.0,6.0,100,0.00,,,0.00,Wunderground v.1.15,2013-08-15 03:15:00,
2013-08-14 23:20:00,84.0,84.0,29.92,SE,143,4.0,9.0,100,0.00,,,0.00,Wunderground v.1.15,2013-08-15 03:20:00,
2013-08-14 23:30:00,84.0,84.0,29.92,ESE,123,6.0,6.0,100,0.00,,,0.00,Wunderground v.1.15,2013-08-15 03:30:00,
2013-08-14 23:35:00,84.0,84.0,29.92,SE,126,6.0,7.0,100,0.00,,,0.00,Wunderground v.1.15,2013-08-15 03:35:00,
2013-08-14 23:45:00,84.1,84.1,29.92,SE,124,4.0,6.0,100,0.00,,,0.00,Wunderground v.1.15,2013-08-15 03:45:00,
2013-08-14 23:50:00,84.1,84.1,29.92,SE,128,5.0,5.0,100,0.00,,,0.00,Wunderground v.1.15,2013-08-15 03:50:00,